createdAt,value
2023-10-05T00:02:21.944Z,5.60
2023-10-05T00:04:52.628Z,5.57
2023-10-05T00:07:28.317Z,6.40
2023-10-05T00:09:59.065Z,4.87
2023-10-05T00:12:26.948Z,6.27
2023-10-05T00:15:15.182Z,6.10
2023-10-05T00:17:42.561Z,6.20
2023-10-05T00:20:30.983Z,5.60
2023-10-05T00:22:59.756Z,5.87
2023-10-05T00:25:29.274Z,5.90
2023-10-05T00:27:57.938Z,6.23
2023-10-05T00:30:26.329Z,5.47
2023-10-05T00:32:57.194Z,6.87
2023-10-05T00:35:34.862Z,6.07
2023-10-05T00:38:16.242Z,6.53
2023-10-05T00:40:44.933Z,5.83
2023-10-05T00:43:22.928Z,6.20
2023-10-05T00:45:51.414Z,5.67
2023-10-05T00:48:29.231Z,5.93
2023-10-05T00:51:00.419Z,5.80
2023-10-05T00:53:31.842Z,5.33
2023-10-05T00:56:19.803Z,6.00
2023-10-05T00:58:48.550Z,6.03
2023-10-05T01:01:28.954Z,5.90
2023-10-05T01:04:08.539Z,5.70
2023-10-05T01:06:55.113Z,5.50
2023-10-05T01:09:54.084Z,5.80
2023-10-05T01:12:21.231Z,5.33
2023-10-05T01:14:54.326Z,5.63
2023-10-05T01:17:23.033Z,5.20
2023-10-05T01:19:57.096Z,5.60
2023-10-05T01:22:27.112Z,5.20
2023-10-05T01:24:56.784Z,5.63
2023-10-05T01:27:30.890Z,5.37
2023-10-05T01:29:58.758Z,5.30
2023-10-05T01:32:27.918Z,6.13
2023-10-05T01:34:55.026Z,5.30
2023-10-05T01:37:27.812Z,5.93
2023-10-05T01:39:55.327Z,5.80
2023-10-05T01:42:22.483Z,6.10
2023-10-05T01:44:51.309Z,5.30
2023-10-05T01:47:23.640Z,4.90
2023-10-05T01:49:51.784Z,5.33
2023-10-05T01:52:19.034Z,6.00
2023-10-05T01:54:46.324Z,6.30
2023-10-05T01:57:17.627Z,6.00
2023-10-05T01:59:45.725Z,6.07
2023-10-05T02:02:14.071Z,5.70
2023-10-05T02:04:46.086Z,5.30
2023-10-05T02:07:16.122Z,5.53
2023-10-05T02:09:43.916Z,5.33
2023-10-05T02:12:10.978Z,5.00
2023-10-05T02:14:43.141Z,5.37
2023-10-05T02:17:10.843Z,5.17
2023-10-05T02:19:38.668Z,5.20
2023-10-05T02:22:12.738Z,5.70
2023-10-05T02:24:43.097Z,5.40
2023-10-05T02:27:10.980Z,5.73
2023-10-05T02:29:44.158Z,5.90
2023-10-05T02:32:23.316Z,5.53
2023-10-05T02:35:01.365Z,5.30
2023-10-05T02:37:30.109Z,4.40
2023-10-05T02:39:59.349Z,5.50
2023-10-05T02:42:27.507Z,5.77
2023-10-05T02:45:04.400Z,5.53
2023-10-05T02:47:32.357Z,5.00
2023-10-05T02:50:01.327Z,5.77
2023-10-05T02:52:33.468Z,5.63
2023-10-05T02:55:00.928Z,4.70
2023-10-05T02:57:28.235Z,5.73
2023-10-05T02:59:55.433Z,5.43
2023-10-05T03:02:24.440Z,5.27
2023-10-05T03:05:03.826Z,4.90
2023-10-05T03:07:32.112Z,5.80
2023-10-05T03:10:01.325Z,5.20
2023-10-05T03:12:29.127Z,6.23
2023-10-05T03:14:57.876Z,6.37
2023-10-05T03:17:27.914Z,5.90
2023-10-05T03:19:57.306Z,5.83
2023-10-05T03:22:25.940Z,5.83
2023-10-05T03:24:55.667Z,6.10
2023-10-05T03:27:23.972Z,5.10
2023-10-05T03:29:53.991Z,5.70
2023-10-05T03:32:21.747Z,5.87
2023-10-05T03:34:57.684Z,5.63
2023-10-05T03:37:25.804Z,5.73
2023-10-05T03:39:59.145Z,6.20
2023-10-05T03:42:26.966Z,7.20
2023-10-05T03:45:05.564Z,6.03
2023-10-05T03:47:39.040Z,6.87
2023-10-05T03:50:07.320Z,5.93
2023-10-05T03:52:34.380Z,5.17
2023-10-05T03:55:10.814Z,5.70
2023-10-05T03:57:43.048Z,5.67
2023-10-05T04:00:23.829Z,6.63
2023-10-05T04:02:54.385Z,6.27
2023-10-05T04:05:24.556Z,6.33
2023-10-05T04:07:53.729Z,5.70
2023-10-05T04:10:44.249Z,5.90
2023-10-05T04:13:12.377Z,6.33
2023-10-05T04:15:42.458Z,6.67
2023-10-05T04:18:13.143Z,5.47
2023-10-05T04:20:44.687Z,5.80
2023-10-05T04:23:17.743Z,6.57
2023-10-05T04:25:46.003Z,6.47
2023-10-05T04:28:15.768Z,6.30
2023-10-05T04:30:44.115Z,6.37
2023-10-05T04:33:15.819Z,6.07
2023-10-05T04:35:53.333Z,6.27
2023-10-05T04:38:23.904Z,5.77
2023-10-05T04:40:53.850Z,6.83
2023-10-05T04:43:39.599Z,6.67
2023-10-05T04:51:33.651Z,6.50
2023-10-05T04:54:01.295Z,6.23
2023-10-05T04:56:40.703Z,5.30
2023-10-05T04:59:11.452Z,6.57
2023-10-05T05:01:51.932Z,6.13
2023-10-05T05:04:38.550Z,6.50
2023-10-05T05:07:10.943Z,6.27
2023-10-05T05:09:45.728Z,5.47
2023-10-05T05:12:18.140Z,6.33
2023-10-05T05:14:55.072Z,5.70
2023-10-05T05:17:23.870Z,6.17
2023-10-05T05:19:54.315Z,6.80
2023-10-05T05:22:21.640Z,6.10
2023-10-05T05:24:51.637Z,5.73
2023-10-05T05:27:19.403Z,6.90
2023-10-05T05:29:48.001Z,5.67
2023-10-05T05:32:15.540Z,6.50
2023-10-05T05:34:44.314Z,5.47
2023-10-05T05:37:15.343Z,6.47
2023-10-05T05:39:42.443Z,6.50
2023-10-05T05:42:16.650Z,8.70
2023-10-05T05:44:44.846Z,8.10
2023-10-05T05:47:16.120Z,7.07
2023-10-05T05:49:46.473Z,7.07
2023-10-05T05:52:16.125Z,6.97
2023-10-05T05:54:53.828Z,6.40
2023-10-05T05:57:22.005Z,6.27
2023-10-05T05:59:50.530Z,6.40
2023-10-05T06:02:17.800Z,6.00
2023-10-05T06:04:45.453Z,5.90
2023-10-05T06:07:13.412Z,5.97
2023-10-05T06:09:47.147Z,6.40
2023-10-05T06:12:17.566Z,5.17
2023-10-05T06:14:45.152Z,5.57
2023-10-05T06:17:13.022Z,5.70
2023-10-05T06:19:40.305Z,6.10
2023-10-05T06:22:08.956Z,5.77
2023-10-05T06:24:43.629Z,6.23
2023-10-05T06:27:11.374Z,5.57
2023-10-05T06:29:38.620Z,5.47
2023-10-05T06:32:06.228Z,6.03
2023-10-05T06:34:38.452Z,5.30
2023-10-05T06:37:06.488Z,6.00
2023-10-05T06:39:34.567Z,6.37
2023-10-05T06:42:01.816Z,5.57
2023-10-05T06:44:30.290Z,4.83
2023-10-05T06:47:00.973Z,5.80
2023-10-05T06:49:28.793Z,5.00
2023-10-05T06:51:56.700Z,5.30
2023-10-05T06:54:24.185Z,5.27
2023-10-05T06:56:52.159Z,4.63
2023-10-05T06:59:22.507Z,5.57
2023-10-05T07:01:50.056Z,5.10
2023-10-05T07:04:19.611Z,6.13
2023-10-05T07:06:46.736Z,7.40
2023-10-05T07:09:14.771Z,4.33
2023-10-05T07:11:41.973Z,5.97
2023-10-05T07:14:10.938Z,5.23
2023-10-05T07:16:38.392Z,5.00
2023-10-05T07:19:09.494Z,4.70
2023-10-05T07:21:37.545Z,4.93
2023-10-05T07:24:10.747Z,5.23
2023-10-05T07:26:38.467Z,5.50
2023-10-05T07:29:15.799Z,5.20
2023-10-05T07:31:51.655Z,5.13
2023-10-05T07:34:18.866Z,5.40
2023-10-05T07:36:46.127Z,4.20
2023-10-05T07:39:15.909Z,5.50
2023-10-05T07:41:45.333Z,5.20
2023-10-05T07:48:01.310Z,4.05
2023-10-05T07:50:28.364Z,4.80
2023-10-05T07:52:59.118Z,4.35
2023-10-05T07:55:26.576Z,4.40
2023-10-05T07:57:53.631Z,4.40
2023-10-05T08:00:21.584Z,4.35
2023-10-05T08:02:48.819Z,5.03
2023-10-05T08:05:18.623Z,4.65
2023-10-05T08:07:45.687Z,4.28
2023-10-05T08:10:17.390Z,4.63
2023-10-05T08:12:45.521Z,4.25
2023-10-05T08:15:18.834Z,4.22
2023-10-05T08:17:51.968Z,4.45
2023-10-05T08:20:25.817Z,4.00
2023-10-05T08:22:58.032Z,4.22
2023-10-05T08:25:25.832Z,3.95
2023-10-05T08:27:53.633Z,4.13
2023-10-05T08:30:21.150Z,3.67
2023-10-05T08:32:49.937Z,3.30
2023-10-05T08:35:20.181Z,4.05
2023-10-05T08:38:02.086Z,3.92
2023-10-05T08:40:39.410Z,5.78
2023-10-05T08:43:15.781Z,4.28
2023-10-05T08:45:48.425Z,4.82
2023-10-05T08:48:37.577Z,4.05
2023-10-05T08:51:11.838Z,3.55
2023-10-05T08:53:50.663Z,4.10
2023-10-05T08:56:18.664Z,4.03
2023-10-05T08:58:48.484Z,4.30
2023-10-05T09:01:32.652Z,4.68
2023-10-05T09:04:30.943Z,4.38
2023-10-05T09:07:00.546Z,3.65
2023-10-05T09:09:55.540Z,4.68
2023-10-05T09:12:36.861Z,3.65
2023-10-05T09:15:11.693Z,4.10
2023-10-05T09:18:00.717Z,3.60
2023-10-05T09:20:34.687Z,4.45
2023-10-05T09:23:05.639Z,4.30
2023-10-05T09:25:40.656Z,3.78
2023-10-05T09:28:14.608Z,3.65
2023-10-05T09:30:57.373Z,3.67
2023-10-05T09:33:27.008Z,4.47
2023-10-05T09:36:08.003Z,4.20
2023-10-05T09:38:42.653Z,3.58
2023-10-05T09:41:09.949Z,4.25
2023-10-05T09:43:41.972Z,4.90
2023-10-05T09:46:11.932Z,3.20
2023-10-05T09:48:40.742Z,2.83
2023-10-05T09:51:09.802Z,3.47
2023-10-05T09:53:38.991Z,3.58
2023-10-05T09:56:07.488Z,3.72
2023-10-05T09:58:36.259Z,3.60
2023-10-05T10:01:12.326Z,3.08
2023-10-05T10:03:49.144Z,3.47
2023-10-05T10:06:19.991Z,3.20
2023-10-05T10:08:56.828Z,3.58
2023-10-05T10:11:33.342Z,3.65
2023-10-05T10:14:09.014Z,3.33
2023-10-05T10:16:48.906Z,3.40
2023-10-05T10:19:23.395Z,3.22
2023-10-05T10:22:02.002Z,3.63
2023-10-05T10:24:31.258Z,3.33
2023-10-05T10:27:12.809Z,3.65
2023-10-05T10:30:02.551Z,3.85
2023-10-05T10:32:33.275Z,2.70
2023-10-05T10:35:10.644Z,3.47
2023-10-05T10:37:46.422Z,3.55
2023-10-05T10:40:21.940Z,3.80
2023-10-05T10:43:05.155Z,2.88
2023-10-05T10:45:43.327Z,3.47
2023-10-05T10:48:21.654Z,3.33
2023-10-05T10:50:53.692Z,2.80
2023-10-05T10:53:27.084Z,2.90
2023-10-05T10:56:05.489Z,2.97
2023-10-05T10:58:34.877Z,3.33
2023-10-05T11:01:05.594Z,3.47
2023-10-05T11:03:33.836Z,3.25
2023-10-05T11:06:05.700Z,3.15
2023-10-05T11:08:36.288Z,3.40
2023-10-05T11:11:30.783Z,3.47
2023-10-05T11:13:57.956Z,3.22
2023-10-05T11:16:37.188Z,3.35
2023-10-05T11:19:12.504Z,3.17
2023-10-05T11:21:49.667Z,3.33
2023-10-05T11:24:19.740Z,3.15
2023-10-05T11:27:06.827Z,4.53
2023-10-05T11:29:46.718Z,4.20
2023-10-05T11:32:41.124Z,4.65
2023-10-05T11:35:20.308Z,3.80
2023-10-05T11:38:04.992Z,3.70
2023-10-05T11:40:43.248Z,3.45
2023-10-05T11:43:14.726Z,4.03
2023-10-05T11:46:19.970Z,3.35
2023-10-05T11:48:49.795Z,4.00
2023-10-05T11:51:21.250Z,3.63
2023-10-05T11:53:51.940Z,3.95
2023-10-05T11:56:19.645Z,4.20
2023-10-05T11:58:48.409Z,4.20
2023-10-05T12:01:21.970Z,4.13
2023-10-05T12:03:50.953Z,3.53
2023-10-05T12:06:24.966Z,4.20
2023-10-05T12:09:02.829Z,3.78
2023-10-05T12:11:30.406Z,4.30
2023-10-05T12:13:58.933Z,3.22
2023-10-05T12:16:33.746Z,3.55
2023-10-05T12:19:15.622Z,4.20
2023-10-05T12:24:31.907Z,3.38
2023-10-05T12:27:02.012Z,3.92
2023-10-05T12:29:31.271Z,4.30
2023-10-05T12:32:21.880Z,3.53
2023-10-05T12:34:55.452Z,3.67
2023-10-05T12:37:23.028Z,3.75
2023-10-05T12:40:20.784Z,3.53
2023-10-05T12:43:14.060Z,3.80
2023-10-05T12:45:44.561Z,3.38
2023-10-05T12:48:13.375Z,3.38
2023-10-05T12:50:43.324Z,4.35
2023-10-05T12:53:10.891Z,3.42
2023-10-05T12:55:39.149Z,3.50
2023-10-05T12:58:10.013Z,3.15
2023-10-05T13:00:41.975Z,2.80
2023-10-05T13:03:13.938Z,3.17
2023-10-05T13:05:49.009Z,4.40
2023-10-05T13:08:17.975Z,3.13
2023-10-05T13:10:49.736Z,3.22
2023-10-05T13:13:21.958Z,3.20
2023-10-05T13:15:52.161Z,3.00
2023-10-05T13:18:27.062Z,3.25
2023-10-05T13:21:11.026Z,3.47
2023-10-05T13:23:39.740Z,3.00
2023-10-05T13:32:39.537Z,3.65
2023-10-05T13:35:11.695Z,3.28
2023-10-05T13:37:41.333Z,3.17
2023-10-05T13:40:09.064Z,3.30
2023-10-05T13:42:36.906Z,3.10
2023-10-05T13:45:14.527Z,3.83
2023-10-05T13:47:54.313Z,3.05
2023-10-05T13:50:25.853Z,2.65
2023-10-05T13:53:11.538Z,2.65
2023-10-05T13:55:38.755Z,2.75
2023-10-05T13:58:06.661Z,2.75
2023-10-05T14:00:36.125Z,2.80
2023-10-05T14:03:04.487Z,2.65
2023-10-05T14:05:31.724Z,3.67
2023-10-05T14:08:04.038Z,2.70
2023-10-05T14:10:31.766Z,3.00
2023-10-05T14:13:00.104Z,3.67
2023-10-05T14:15:28.339Z,3.25
2023-10-05T14:17:58.406Z,3.50
2023-10-05T14:20:26.253Z,2.90
2023-10-05T14:22:53.609Z,3.33
2023-10-05T14:25:24.359Z,3.35
2023-10-05T14:27:53.560Z,3.63
2023-10-05T14:30:23.023Z,3.42
2023-10-05T14:32:53.516Z,2.97
2023-10-05T14:35:21.381Z,3.42
2023-10-05T14:37:56.471Z,3.60
2023-10-05T14:40:23.655Z,3.50
2023-10-05T14:42:52.098Z,3.08
2023-10-05T14:45:22.757Z,3.65
2023-10-05T14:47:50.594Z,3.15
2023-10-05T14:50:18.753Z,3.37
2023-10-05T14:52:52.334Z,3.33
2023-10-05T14:55:21.586Z,3.10
2023-10-05T14:57:49.072Z,3.50
2023-10-05T15:00:17.495Z,3.60
2023-10-05T15:02:45.325Z,3.60
2023-10-05T15:05:14.345Z,3.80
2023-10-05T15:07:43.546Z,3.53
2023-10-05T15:10:17.906Z,3.70
2023-10-05T15:12:46.056Z,3.63
2023-10-05T15:15:16.990Z,3.50
2023-10-05T15:17:46.467Z,3.60
2023-10-05T15:20:23.885Z,4.17
2023-10-05T15:22:54.924Z,3.63
2023-10-05T15:25:23.519Z,4.50
2023-10-05T15:27:52.022Z,3.78
2023-10-05T15:30:22.749Z,4.60
2023-10-05T15:35:25.456Z,4.17
2023-10-05T15:37:53.410Z,3.93
2023-10-05T15:40:21.809Z,5.27
2023-10-05T15:42:55.534Z,4.93
2023-10-05T15:45:25.341Z,5.00
2023-10-05T15:47:56.183Z,5.13
2023-10-05T15:50:30.154Z,5.20
2023-10-05T15:52:59.382Z,4.43
2023-10-05T15:55:27.450Z,4.65
2023-10-05T15:57:56.270Z,4.70
2023-10-05T16:00:27.535Z,4.77
2023-10-05T16:03:00.412Z,5.40
2023-10-05T16:05:35.118Z,5.13
2023-10-05T16:08:04.757Z,4.27
2023-10-05T16:10:35.028Z,5.53
2023-10-05T16:13:08.917Z,5.73
2023-10-05T16:15:37.232Z,4.93
2023-10-05T16:18:06.041Z,4.63
2023-10-05T16:20:38.629Z,4.63
2023-10-05T16:23:07.816Z,4.53
2023-10-05T16:25:38.128Z,5.77
2023-10-05T16:28:09.778Z,6.43
2023-10-05T16:30:38.028Z,5.40
2023-10-05T16:33:08.782Z,5.83
2023-10-05T16:35:36.793Z,6.47
2023-10-05T16:38:06.317Z,5.27
2023-10-05T16:40:58.759Z,5.30
2023-10-05T16:43:29.520Z,4.90
2023-10-05T16:45:56.469Z,5.13
2023-10-05T16:52:11.162Z,6.65
2023-10-05T16:54:39.868Z,5.63
2023-10-05T16:57:08.284Z,6.50
2023-10-05T16:59:36.095Z,5.87
2023-10-05T17:02:05.600Z,6.80
2023-10-05T17:04:32.980Z,6.57
2023-10-05T17:06:59.995Z,5.57
2023-10-05T17:09:29.512Z,6.70
2023-10-05T17:11:58.204Z,7.03
2023-10-05T17:14:25.588Z,6.57
2023-10-05T17:16:53.423Z,5.43
2023-10-05T17:19:21.978Z,6.70
2023-10-05T17:21:49.437Z,6.97
2023-10-05T17:24:21.549Z,7.00
2023-10-05T17:26:49.325Z,6.67
2023-10-05T17:29:16.202Z,6.90
2023-10-05T17:31:44.904Z,7.53
2023-10-05T17:34:13.677Z,8.30
2023-10-05T17:36:40.812Z,8.17
2023-10-05T17:39:08.705Z,7.33
2023-10-05T17:41:35.945Z,5.93
2023-10-05T17:44:03.113Z,7.87
2023-10-05T17:46:30.677Z,7.20
2023-10-05T17:48:58.993Z,6.90
2023-10-05T17:51:26.371Z,8.23
2023-10-05T17:54:00.016Z,7.17
2023-10-05T17:56:34.352Z,7.13
2023-10-05T17:59:10.903Z,6.80
2023-10-05T18:01:38.799Z,7.20
2023-10-05T18:21:14.476Z,6.60
2023-10-05T18:23:41.964Z,6.87
2023-10-05T18:26:09.459Z,5.63
2023-10-05T18:28:36.819Z,5.93
2023-10-05T18:31:06.093Z,6.57
2023-10-05T18:33:33.398Z,6.73
2023-10-05T18:36:27.815Z,6.10
2023-10-05T18:46:02.406Z,6.13
2023-10-05T18:48:31.241Z,7.63
2023-10-05T18:50:58.536Z,5.90
2023-10-05T18:53:26.251Z,6.50
2023-10-05T18:55:53.774Z,6.17
2023-10-05T18:58:21.634Z,6.27
2023-10-05T19:00:54.823Z,5.53
2023-10-05T19:03:22.500Z,4.90
2023-10-05T19:05:49.738Z,6.03
2023-10-05T19:08:18.827Z,6.17
2023-10-05T19:10:46.245Z,5.80
2023-10-05T19:13:13.760Z,5.03
2023-10-05T19:15:41.152Z,5.53
2023-10-05T19:18:09.491Z,5.37
2023-10-05T19:20:37.145Z,5.87
2023-10-05T19:23:07.640Z,6.13
2023-10-05T19:25:34.956Z,5.30
2023-10-05T19:28:02.481Z,5.17
2023-10-05T19:30:29.743Z,5.20
2023-10-05T19:32:57.155Z,5.63
2023-10-05T19:35:24.513Z,5.97
2023-10-05T19:37:51.448Z,5.03
2023-10-05T19:40:18.757Z,5.67
2023-10-05T19:42:46.105Z,5.57
2023-10-05T19:45:13.869Z,4.87
2023-10-05T19:47:41.333Z,5.40
2023-10-05T19:50:08.973Z,5.35
2023-10-05T19:52:36.395Z,5.27
2023-10-05T19:55:04.763Z,5.37
2023-10-05T19:57:33.575Z,5.40
2023-10-05T20:00:02.219Z,5.50
2023-10-05T20:02:29.089Z,5.83
2023-10-05T20:04:56.595Z,6.37
2023-10-05T20:07:25.960Z,5.50
2023-10-05T20:09:55.033Z,5.30
2023-10-05T20:12:24.414Z,6.33
2023-10-05T20:14:51.745Z,5.67
2023-10-05T20:17:20.345Z,6.22
2023-10-05T20:19:47.438Z,5.70
2023-10-05T20:22:14.736Z,6.03
2023-10-05T20:24:42.959Z,6.13
2023-10-05T20:27:16.704Z,6.13
2023-10-05T20:29:45.823Z,6.27
2023-10-05T20:32:13.130Z,6.70
2023-10-05T20:34:43.551Z,4.87
2023-10-05T20:37:11.057Z,6.00
2023-10-05T20:39:38.984Z,6.43
2023-10-05T20:42:06.138Z,6.80
2023-10-05T20:44:34.009Z,7.60
2023-10-05T20:47:02.021Z,7.47
2023-10-05T20:49:35.120Z,6.27
2023-10-05T20:52:02.210Z,6.27
2023-10-05T20:54:29.780Z,6.97
2023-10-05T20:56:56.902Z,7.27
2023-10-05T20:59:27.696Z,7.87
2023-10-05T21:01:56.441Z,7.77
2023-10-05T21:04:24.808Z,7.57
2023-10-05T21:06:53.954Z,7.93
2023-10-05T21:09:21.453Z,7.90
2023-10-05T21:11:48.726Z,7.73
2023-10-05T21:14:17.346Z,8.13
2023-10-05T21:16:44.544Z,7.63
2023-10-05T21:19:12.523Z,8.00
2023-10-05T21:21:39.761Z,7.43
2023-10-05T21:24:09.035Z,8.00
2023-10-05T21:26:41.756Z,7.30
2023-10-05T21:29:09.744Z,7.97
2023-10-05T21:31:37.245Z,7.07
2023-10-05T21:34:07.261Z,7.90
2023-10-05T21:36:34.616Z,8.00
2023-10-05T21:39:02.084Z,7.73
2023-10-05T21:41:29.538Z,7.73
2023-10-05T21:43:56.886Z,8.53
2023-10-05T21:46:28.044Z,7.87
2023-10-05T21:48:55.757Z,7.43
2023-10-05T21:51:23.338Z,8.00
2023-10-05T21:53:50.814Z,8.47
2023-10-05T21:56:18.084Z,8.13
2023-10-05T21:58:46.739Z,7.87
2023-10-05T22:01:15.618Z,8.47
2023-10-05T22:03:43.362Z,8.23
2023-10-05T22:06:10.352Z,8.03
2023-10-05T22:08:37.772Z,7.27
2023-10-05T22:11:06.051Z,7.77
2023-10-05T22:13:33.254Z,8.10
2023-10-05T22:16:00.688Z,7.10
2023-10-05T22:18:28.334Z,7.50
2023-10-05T22:20:55.664Z,7.10
2023-10-05T22:23:25.641Z,6.83
2023-10-05T22:25:52.747Z,6.30
2023-10-05T22:28:19.895Z,6.27
2023-10-05T22:30:46.978Z,7.53
2023-10-05T22:33:14.285Z,6.97
2023-10-05T22:35:41.757Z,6.23
2023-10-05T22:38:12.254Z,7.03
2023-10-05T22:40:40.713Z,6.03
2023-10-05T22:43:12.112Z,6.27
2023-10-05T22:45:39.784Z,6.13
2023-10-05T22:48:07.404Z,6.83
2023-10-05T22:50:38.751Z,5.70
2023-10-05T22:53:06.084Z,5.73
2023-10-05T22:55:33.193Z,7.40
2023-10-05T22:58:01.440Z,6.20
2023-10-05T23:00:29.144Z,6.97
2023-10-05T23:02:57.378Z,5.73
2023-10-05T23:05:24.876Z,6.23
2023-10-05T23:07:56.368Z,5.50
2023-10-05T23:10:25.083Z,6.17
2023-10-05T23:12:52.528Z,6.67
2023-10-05T23:15:20.314Z,5.33
2023-10-05T23:17:47.645Z,4.93
2023-10-05T23:20:25.617Z,5.70
2023-10-05T23:22:54.082Z,5.30
2023-10-05T23:25:23.294Z,4.63
2023-10-05T23:27:51.960Z,6.27
2023-10-05T23:30:20.332Z,5.37
2023-10-05T23:32:49.360Z,5.23
2023-10-05T23:35:17.697Z,5.80
2023-10-05T23:37:46.130Z,5.47
2023-10-05T23:40:13.738Z,5.90
2023-10-05T23:42:42.170Z,6.03
2023-10-05T23:45:17.994Z,5.20
2023-10-05T23:47:55.319Z,6.03
2023-10-05T23:50:26.852Z,6.23
2023-10-05T23:52:57.955Z,6.30
2023-10-05T23:55:28.721Z,5.50
2023-10-05T23:57:56.262Z,5.70
